Terminal Aerodrome Forecast
Issued by NWS

Home | Current Version | Previous Version | Text Only | Print | Product List | Glossary On
Versions: 1 2 3 4 5 6 7 8 9 10 11 12 13 14 15 16 17
429
FTUS41 KBTV 281326 AAA
TAFSLK
TAF AMD
KSLK 281326Z 2813/2912 24004KT 2SM BR VCSH SCT008 OVC016
      TEMPO 2813/2814 3/4SM BR BKN008 OVC012
     FM281400 00000KT 4SM -SHRA BR OVC008
     FM281700 VRB03KT P6SM VCSH OVC008
     FM290000 VRB03KT P6SM OVC003
     FM290300 VRB03KT 1/4SM FG OVC008=

USA.gov is the U.S. government's official web portal to all federal, state and local government web resources and services.